Time;durP1;ratioP1;P1;durP2;ratioP2;P2;SDS_P1;SDS_P2;PMS_P1;PMS_P2;Temp;Humidity;BMP_temperature;BMP_pressure;BME280_temperature;BME280_humidity;BME280_pressure;Samples;Min_cycle;Max_cycle;Signal;HPM_P1;HPM_P2
2022/05/22 00:00:31;;;;;;;1.83;1.70;;;;;;;-143.84;39.83;44999.56;5112942;28;20935;-77
2022/05/22 00:02:58;;;;;;;3.03;2.17;;;;;;;-143.84;40.23;44993.84;5113140;28;20454;-78
2022/05/22 00:05:26;;;;;;;2.27;2.10;;;;;;;-143.84;39.92;44982.41;5113042;28;20475;-77
2022/05/22 00:07:53;;;;;;;6.27;2.10;;;;;;;-143.84;39.90;44976.72;5113022;28;20443;-78
2022/05/22 00:10:21;;;;;;;7.93;1.70;;;;;;;-143.84;39.96;44980.53;5113261;28;20503;-78
2022/05/22 00:12:49;;;;;;;7.27;2.30;;;;;;;-143.84;39.86;44984.31;5112824;28;20499;-77
2022/05/22 00:15:17;;;;;;;3.27;1.60;;;;;;;-143.84;39.56;44988.13;5112757;28;20470;-77
2022/05/22 00:17:46;;;;;;;2.87;1.97;;;;;;;-143.84;39.50;45003.38;5112444;28;20442;-76
2022/05/22 00:20:14;;;;;;;1.90;1.77;;;;;;;-143.84;39.15;44999.56;5110746;28;20442;-76
2022/05/22 00:22:42;;;;;;;7.67;2.60;;;;;;;-143.84;38.89;44988.13;5112776;28;20442;-77
2022/05/22 00:25:11;;;;;;;2.47;1.50;;;;;;;-143.84;39.04;44997.66;5113962;28;20442;-77
2022/05/22 00:27:39;;;;;;;6.10;1.60;;;;;;;-143.84;38.61;44978.63;5113802;28;20808;-78
2022/05/22 00:30:09;;;;;;;2.00;1.90;;;;;;;-143.84;38.55;44984.31;5113701;28;20435;-77
2022/05/22 00:32:36;;;;;;;4.63;1.70;;;;;;;-143.84;38.64;44984.31;5113951;28;20436;-77
2022/05/22 00:35:05;;;;;;;1.97;1.50;;;;;;;-143.84;38.76;44999.56;5113255;28;20995;-77
2022/05/22 00:37:33;;;;;;;3.13;1.50;;;;;;;-143.84;38.29;44986.22;5113918;28;20469;-78
2022/05/22 00:40:00;;;;;;;9.50;1.67;;;;;;;-143.84;38.62;44980.53;5113556;28;20435;-77
2022/05/22 00:42:27;;;;;;;9.97;1.70;;;;;;;-143.84;38.41;44976.72;5112948;28;20439;-77
2022/05/22 00:44:54;;;;;;;13.53;1.50;;;;;;;-143.84;38.83;44978.63;5112377;28;20458;-78
2022/05/22 00:47:23;;;;;;;2.20;2.10;;;;;;;-143.84;39.07;44976.72;5113103;28;20434;-78
2022/05/22 00:49:52;;;;;;;1.70;1.60;;;;;;;-143.84;38.63;44993.84;5113216;28;20423;-77
2022/05/22 00:52:26;;;;;;;1.60;1.50;;;;;;;-143.84;38.86;44971.00;5112324;28;20914;-71
2022/05/22 00:54:57;;;;;;;3.60;1.60;;;;;;;-143.84;38.38;44972.91;5109581;28;20482;-71
2022/05/22 00:57:30;;;;;;;7.67;1.90;;;;;;;-143.84;38.38;44980.53;5109487;28;20442;-71
2022/05/22 01:00:00;;;;;;;1.73;1.47;;;;;;;-143.84;38.84;44986.22;5109662;28;20435;-72
2022/05/22 01:03:26;;;;;;;1.70;1.60;;;;;;;-143.84;38.55;44982.41;5109173;28;20435;-73
2022/05/22 01:05:16;;;;;;;2.50;2.30;;;;;;;-143.84;38.57;44976.72;5109265;28;20466;-73
2022/05/22 01:07:46;;;;;;;5.40;1.97;;;;;;;-143.84;38.38;44990.03;5109606;28;20457;-73
2022/05/22 01:10:13;;;;;;;1.83;1.70;;;;;;;-143.84;38.49;44984.31;5109681;28;20496;-73
2022/05/22 01:12:44;;;;;;;3.30;1.80;;;;;;;-143.84;38.12;44980.53;5109349;28;20439;-72
2022/05/22 01:15:12;;;;;;;7.97;1.93;;;;;;;-143.84;37.63;44971.00;5109310;28;20483;-73
2022/05/22 01:17:41;;;;;;;2.03;1.93;;;;;;;-143.84;37.72;44999.56;5109878;28;20434;-73
2022/05/22 01:20:10;;;;;;;3.00;1.90;;;;;;;-143.84;37.48;44988.13;5109092;28;20447;-73
2022/05/22 01:22:39;;;;;;;2.20;2.00;;;;;;;-143.84;37.46;44965.28;5109088;28;20495;-73
2022/05/22 01:25:08;;;;;;;7.50;2.00;;;;;;;-143.84;37.43;44988.13;5108880;28;20801;-71
2022/05/22 01:27:35;;;;;;;2.70;2.07;;;;;;;-143.84;37.27;44990.03;5108577;28;20499;-71
2022/05/22 01:30:12;;;;;;;3.20;2.17;;;;;;;-143.84;37.47;45005.28;5108666;28;20451;-71
2022/05/22 01:32:41;;;;;;;5.13;2.13;;;;;;;-143.84;37.83;44963.38;5109158;28;20499;-71
2022/05/22 01:35:10;;;;;;;3.03;1.90;;;;;;;-143.84;37.92;44974.81;5109089;28;20889;-71
2022/05/22 01:37:38;;;;;;;6.13;2.30;;;;;;;-143.84;37.95;44967.19;5108975;28;20464;-71
2022/05/22 01:40:08;;;;;;;2.00;1.80;;;;;;;-143.84;37.77;44957.66;5109104;28;20480;-71
2022/05/22 01:42:35;;;;;;;1.90;1.80;;;;;;;-143.84;37.87;44988.13;5109104;28;20435;-71
2022/05/22 01:45:02;;;;;;;12.17;2.50;;;;;;;-143.84;38.01;44978.63;5108803;28;20434;-71
2022/05/22 01:47:33;;;;;;;3.30;2.13;;;;;;;-143.84;38.18;44972.91;5108395;28;20975;-71
2022/05/22 01:50:00;;;;;;;2.87;2.13;;;;;;;-143.84;37.98;44963.38;5109073;28;20768;-71
2022/05/22 01:52:28;;;;;;;4.80;2.70;;;;;;;-143.84;38.72;45007.19;5109159;28;21121;-71
2022/05/22 01:54:56;;;;;;;5.33;1.87;;;;;;;-143.84;38.84;44988.13;5109085;28;20876;-71
2022/05/22 01:57:24;;;;;;;6.40;2.07;;;;;;;-143.84;39.80;44969.09;5109097;28;20430;-71
2022/05/22 01:59:51;;;;;;;3.33;2.57;;;;;;;-143.84;40.33;44984.31;5108998;28;20515;-71
2022/05/22 02:02:18;;;;;;;3.00;2.53;;;;;;;-143.84;40.50;44991.94;5108877;28;20500;-71
2022/05/22 02:04:45;;;;;;;5.20;2.40;;;;;;;-143.84;40.88;44993.84;5108590;28;20539;-71
2022/05/22 02:09:58;;;;;;;2.40;1.83;;;;;;;-143.84;41.59;44972.91;5109099;28;20787;-71
2022/05/22 02:12:25;;;;;;;3.53;2.40;;;;;;;-143.84;41.64;44999.56;5109027;28;20430;-71
2022/05/22 02:14:52;;;;;;;6.47;2.20;;;;;;;-143.84;42.24;44990.03;5111595;28;20500;-71
2022/05/22 02:17:20;;;;;;;3.80;2.60;;;;;;;-143.84;42.64;44999.56;5112691;28;20431;-71
2022/05/22 02:19:47;;;;;;;3.70;2.60;;;;;;;-143.84;42.88;44972.91;5112419;28;20531;-71
2022/05/22 02:22:14;;;;;;;10.93;2.23;;;;;;;-143.84;42.94;44993.84;5112805;28;20509;-71
2022/05/22 02:24:42;;;;;;;2.67;2.40;;;;;;;-143.84;43.91;44986.22;5112634;28;20455;-71
2022/05/22 02:27:10;;;;;;;5.63;2.87;;;;;;;-143.84;43.96;44984.31;5112171;28;20439;-71
2022/05/22 02:29:38;;;;;;;9.33;2.97;;;;;;;-143.84;44.47;44999.56;5111521;28;20936;-71
2022/05/22 02:32:06;;;;;;;8.70;3.00;;;;;;;-143.84;44.61;44984.31;5111983;27;20443;-71
2022/05/22 02:34:33;;;;;;;4.70;2.63;;;;;;;-143.84;44.96;44997.66;5113662;28;20481;-78
2022/05/22 02:37:01;;;;;;;5.67;2.80;;;;;;;-143.84;45.08;44991.94;5116251;28;20433;-78
2022/05/22 02:39:28;;;;;;;6.80;2.60;;;;;;;-143.84;45.83;45005.28;5116153;27;21063;-78
2022/05/22 02:42:01;;;;;;;7.07;2.90;;;;;;;-143.84;46.13;44972.91;5114928;28;20480;-78
2022/05/22 02:44:30;;;;;;;6.70;3.23;;;;;;;-143.84;46.26;44980.53;5115195;27;20496;-78
2022/05/22 02:46:58;;;;;;;13.40;4.40;;;;;;;-143.84;47.03;44978.63;5114792;28;20935;-78
2022/05/22 02:49:25;;;;;;;5.83;3.17;;;;;;;-143.84;47.31;44997.66;5115004;28;20439;-78
2022/05/22 02:51:52;;;;;;;3.60;2.80;;;;;;;-143.84;47.26;44986.22;5115380;28;20436;-78
2022/05/22 02:54:21;;;;;;;3.50;3.20;;;;;;;-143.84;47.45;44974.81;5115097;28;20481;-77
2022/05/22 02:56:48;;;;;;;9.87;3.43;;;;;;;-143.84;47.98;44972.91;5115798;28;20924;-77
2022/05/22 02:59:15;;;;;;;14.47;3.77;;;;;;;-143.84;48.83;44984.31;5113627;28;20913;-78
2022/05/22 03:01:44;;;;;;;5.30;2.90;;;;;;;-143.84;48.74;45005.28;5114322;28;20988;-77
2022/05/22 03:04:11;;;;;;;3.63;2.60;;;;;;;-143.84;49.27;44990.03;5114878;27;20443;-78
2022/05/22 03:06:41;;;;;;;10.33;3.50;;;;;;;-143.84;49.32;45007.19;5115401;28;20590;-77
2022/05/22 03:09:12;;;;;;;4.27;3.20;;;;;;;-143.84;49.59;45020.50;5115297;28;20431;-77
2022/05/22 03:11:39;;;;;;;7.40;3.20;;;;;;;-143.84;49.78;44984.31;5113995;28;20438;-78
2022/05/22 03:14:06;;;;;;;7.33;2.90;;;;;;;-143.84;49.53;44999.56;5114714;28;20869;-78
2022/05/22 03:16:34;;;;;;;4.67;3.23;;;;;;;-143.84;49.85;44961.47;5115059;28;20532;-77
2022/05/22 03:19:03;;;;;;;3.53;3.23;;;;;;;-143.84;50.02;45003.38;5116222;28;20514;-78
2022/05/22 03:21:30;;;;;;;3.53;3.23;;;;;;;-143.84;50.19;45007.19;5115676;28;20435;-77
2022/05/22 03:23:57;;;;;;;11.30;3.40;;;;;;;-143.84;50.42;44995.75;5114288;28;20504;-77
2022/05/22 03:26:25;;;;;;;7.00;3.60;;;;;;;-143.84;50.77;45010.97;5114341;28;20454;-78
2022/05/22 03:28:52;;;;;;;4.07;3.20;;;;;;;-143.84;50.28;44988.13;5115445;28;20858;-78
2022/05/22 03:31:19;;;;;;;3.70;2.97;;;;;;;-143.84;50.10;44978.63;5115826;28;20940;-78
2022/05/22 03:33:46;;;;;;;7.20;3.40;;;;;;;-143.84;48.93;44995.75;5116795;28;20427;-78
2022/05/22 03:36:14;;;;;;;4.90;3.43;;;;;;;-143.84;48.14;45001.47;5116423;27;20998;-78
2022/05/22 03:38:42;;;;;;;3.60;3.37;;;;;;;-143.84;48.12;44982.41;5115701;28;20431;-77
2022/05/22 03:41:09;;;;;;;8.27;3.20;;;;;;;-143.84;48.03;44990.03;5115263;28;20488;-78
2022/05/22 03:43:36;;;;;;;4.17;2.63;;;;;;;-143.84;47.05;44990.03;5114064;28;20909;-78
2022/05/22 03:46:03;;;;;;;6.87;3.57;;;;;;;-143.84;45.54;44990.03;5114166;28;20438;-78
2022/05/22 03:48:30;;;;;;;7.10;2.90;;;;;;;-143.84;45.03;44978.63;5114225;28;20819;-78
2022/05/22 03:50:57;;;;;;;3.40;3.10;;;;;;;-143.84;45.51;44961.47;5114334;28;20935;-78
2022/05/22 03:53:26;;;;;;;10.23;3.30;;;;;;;-143.84;45.53;44972.91;5115074;28;20901;-78
2022/05/22 03:55:53;;;;;;;4.27;2.83;;;;;;;-143.84;44.77;44974.81;5114458;28;20463;-78
2022/05/22 03:58:21;;;;;;;4.00;3.17;;;;;;;-143.84;43.78;44976.72;5114366;27;20431;-78
2022/05/22 04:00:48;;;;;;;9.93;3.07;;;;;;;-143.84;43.28;44969.09;5115240;28;20431;-78
2022/05/22 04:03:15;;;;;;;7.17;3.50;;;;;;;-143.84;43.05;44976.72;5115290;28;20423;-78
2022/05/22 04:05:43;;;;;;;4.30;2.63;;;;;;;-143.84;42.35;44953.88;5114308;28;20467;-78
2022/05/22 04:08:10;;;;;;;5.30;2.93;;;;;;;-143.84;41.94;44972.91;5114607;28;20913;-78
2022/05/22 04:10:38;;;;;;;6.07;3.10;;;;;;;-143.84;41.65;44942.44;5112499;28;20439;-78
2022/05/22 04:13:06;;;;;;;6.90;3.37;;;;;;;-143.84;41.28;44957.66;5101311;28;20447;-78
2022/05/22 04:15:33;;;;;;;3.87;2.60;;;;;;;-143.84;41.28;44951.97;5104677;28;20459;-79
2022/05/22 04:18:00;;;;;;;6.63;3.10;;;;;;;-143.84;40.95;44951.97;5104049;28;20428;-78
2022/05/22 04:20:28;;;;;;;11.83;2.93;;;;;;;-143.84;40.39;44950.06;5115264;28;20491;-78
2022/05/22 04:25:41;;;;;;;10.00;2.70;;;;;;;-143.84;40.49;44953.88;5113189;28;20461;-78
2022/05/22 04:28:09;;;;;;;3.10;2.90;;;;;;;-143.84;40.26;44953.88;5111611;28;20520;-78
2022/05/22 04:30:36;;;;;;;4.07;3.40;;;;;;;-143.84;40.40;44925.31;5112035;28;20997;-76
2022/05/22 04:33:03;;;;;;;9.83;3.03;;;;;;;-143.84;40.38;44953.88;5112650;28;20442;-77
2022/05/22 04:35:30;;;;;;;3.27;3.00;;;;;;;-143.84;40.76;44931.00;5111056;28;20470;-77
2022/05/22 04:38:02;;;;;;;5.07;3.30;;;;;;;-143.84;41.02;44961.47;5110175;28;20431;-78
2022/05/22 04:40:29;;;;;;;5.10;3.10;;;;;;;-143.84;40.84;44940.53;5112294;28;20906;-79
2022/05/22 04:42:57;;;;;;;4.23;2.97;;;;;;;-143.84;40.98;44955.75;5112081;28;20439;-79
2022/05/22 04:45:25;;;;;;;6.10;2.80;;;;;;;-143.84;41.20;44942.44;5113566;28;20447;-78
2022/05/22 04:47:52;;;;;;;11.07;4.00;;;;;;;-143.84;41.32;44951.97;5112708;28;20454;-78
2022/05/22 04:50:20;;;;;;;7.00;3.10;;;;;;;-143.84;40.77;44923.41;5112282;28;20439;-78
2022/05/22 04:52:48;;;;;;;8.70;2.87;;;;;;;-143.84;40.88;44957.66;5111955;28;20992;-78
2022/05/22 04:55:15;;;;;;;12.90;3.07;;;;;;;-143.84;40.97;44934.81;5111636;28;20575;-79
2022/05/22 04:57:43;;;;;;;6.17;2.33;;;;;;;-143.84;40.71;44936.72;5110947;28;20439;-78
2022/05/22 05:00:13;;;;;;;7.57;2.93;;;;;;;-143.84;40.26;44948.16;5111526;28;20438;-78
2022/05/22 05:02:40;;;;;;;5.27;2.70;;;;;;;-143.84;39.78;44940.53;5110760;28;20878;-78
2022/05/22 05:05:10;;;;;;;5.33;2.70;;;;;;;-143.84;39.99;44946.25;5111897;28;20535;-78
2022/05/22 05:07:38;;;;;;;9.70;2.80;;;;;;;-143.84;39.68;44934.81;5111802;28;20426;-78
2022/05/22 05:10:06;;;;;;;10.13;3.00;;;;;;;-143.84;39.49;44910.06;5111723;28;20450;-78
2022/05/22 05:12:36;;;;;;;7.70;2.90;;;;;;;-143.84;39.29;44919.59;5103882;28;20431;-78
2022/05/22 05:15:03;;;;;;;8.47;2.80;;;;;;;-143.84;38.87;44915.78;5111073;28;20439;-78
2022/05/22 05:17:32;;;;;;;12.00;2.50;;;;;;;-143.84;39.21;44946.25;5111853;28;20440;-78
2022/05/22 05:19:59;;;;;;;8.10;2.07;;;;;;;-143.84;39.02;44917.69;5108375;28;20492;-78
2022/05/22 05:22:26;;;;;;;5.87;2.63;;;;;;;-143.84;39.20;44953.88;5090940;28;20431;-76
2022/05/22 05:24:53;;;;;;;15.67;2.87;;;;;;;-143.84;39.29;44942.44;5091339;28;20463;-77
2022/05/22 05:27:20;;;;;;;12.60;3.00;;;;;;;-143.84;38.98;44953.88;5101190;28;20431;-78
2022/05/22 05:29:48;;;;;;;13.57;3.07;;;;;;;-143.84;39.28;44940.53;5111606;28;20443;-78
2022/05/22 05:32:18;;;;;;;5.43;3.23;;;;;;;-143.84;39.58;44911.97;5111253;28;20472;-78
2022/05/22 05:34:47;;;;;;;13.40;2.93;;;;;;;-143.84;39.58;44951.97;5111343;28;20485;-78
2022/05/22 05:37:14;;;;;;;5.90;2.83;;;;;;;-143.84;40.04;44946.25;5111116;28;20474;-78
2022/05/22 05:39:41;;;;;;;3.70;2.90;;;;;;;-143.84;39.85;44923.41;5111124;28;20443;-78
2022/05/22 05:42:08;;;;;;;7.77;3.20;;;;;;;-143.84;40.12;44959.56;5110560;28;20435;-78
2022/05/22 05:44:36;;;;;;;11.03;2.90;;;;;;;-143.84;40.08;44929.09;5111417;28;20443;-78
2022/05/22 05:47:03;;;;;;;8.57;2.83;;;;;;;-143.84;40.42;44948.16;5111142;28;20465;-78
2022/05/22 05:49:30;;;;;;;7.13;2.80;;;;;;;-143.84;40.51;44950.06;5115320;28;20901;-78
2022/05/22 05:51:59;;;;;;;15.93;3.03;;;;;;;-143.84;40.54;44915.78;5115077;27;20936;-78
2022/05/22 05:54:26;;;;;;;11.30;3.10;;;;;;;-143.84;40.17;44931.00;5101167;28;21098;-78
2022/05/22 05:56:53;;;;;;;11.33;3.23;;;;;;;-143.84;40.05;44940.53;5094276;28;20501;-78
2022/05/22 05:59:20;;;;;;;13.80;2.97;;;;;;;-143.84;40.26;44911.97;5094684;28;21241;-78
2022/05/22 06:01:47;;;;;;;8.00;2.90;;;;;;;-143.84;39.78;44911.97;5093627;28;20439;-78
2022/05/22 06:04:15;;;;;;;15.60;2.57;;;;;;;-143.84;39.18;44910.06;5093674;28;20501;-77
2022/05/22 06:06:42;;;;;;;6.57;2.77;;;;;;;-143.84;39.88;44917.69;5093992;28;20471;-78
2022/05/22 06:09:11;;;;;;;19.87;3.30;;;;;;;-143.84;40.34;44911.97;5094783;28;20446;-78
2022/05/22 06:11:38;;;;;;;10.93;2.60;;;;;;;-143.84;40.88;44942.44;5094076;28;20501;-78
2022/05/22 06:14:05;;;;;;;9.90;3.93;;;;;;;-143.84;41.87;44934.81;5101376;28;20442;-72
2022/05/22 06:16:32;;;;;;;7.87;3.13;;;;;;;-143.84;41.06;44915.78;5112776;28;20479;-72
2022/05/22 06:18:59;;;;;;;7.50;3.00;;;;;;;-143.84;40.95;44898.66;5112567;28;20503;-72
2022/05/22 06:21:27;;;;;;;14.13;2.63;;;;;;;-143.84;40.00;44925.31;5112446;28;20439;-72
2022/05/22 06:23:54;;;;;;;17.63;2.50;;;;;;;-143.84;39.75;44911.97;5111902;28;20447;-72
2022/05/22 06:26:23;;;;;;;7.50;2.90;;;;;;;-143.84;40.11;44925.31;5108752;28;20444;-73
2022/05/22 06:28:50;;;;;;;7.07;3.17;;;;;;;-143.84;40.77;44948.16;5100133;28;20428;-79
2022/05/22 06:31:17;;;;;;;9.50;3.00;;;;;;;-143.84;40.88;44961.47;5102251;28;20450;-79
2022/05/22 06:33:45;;;;;;;18.57;3.20;;;;;;;-143.84;40.77;44915.78;5115671;28;20427;-79
2022/05/22 06:36:16;;;;;;;7.70;2.70;;;;;;;-143.84;40.06;44913.88;5115097;28;20462;-78
2022/05/22 06:41:29;;;;;;;9.87;2.77;;;;;;;-143.84;39.89;44927.19;5114620;28;20422;-78
2022/05/22 06:43:57;;;;;;;11.47;3.00;;;;;;;-143.84;39.18;44887.22;5114971;28;20439;-78
2022/05/22 06:46:30;;;;;;;18.27;3.60;;;;;;;-143.84;39.89;44919.59;5108741;28;20448;-78
2022/05/22 06:48:57;;;;;;;4.10;2.57;;;;;;;-143.84;39.81;44894.84;5102146;28;20477;-73
2022/05/22 06:51:24;;;;;;;10.37;2.80;;;;;;;-143.84;38.91;44910.06;5100014;28;20505;-78
2022/05/22 06:53:51;;;;;;;5.40;2.53;;;;;;;-143.84;38.87;44896.75;5098141;28;20497;-72
2022/05/22 06:56:18;;;;;;;9.43;2.90;;;;;;;-143.84;38.61;44919.59;5099812;28;20476;-73
2022/05/22 06:58:47;;;;;;;12.40;2.80;;;;;;;-143.84;39.23;44915.78;5096172;28;20443;-77
2022/05/22 07:01:16;;;;;;;10.83;2.80;;;;;;;-143.84;38.74;44908.16;5094517;28;20432;-73
2022/05/22 07:03:43;;;;;;;37.17;3.50;;;;;;;-143.84;38.95;44929.09;5096910;28;21240;-73
2022/05/22 07:06:10;;;;;;;3.40;2.60;;;;;;;-143.84;38.29;44889.13;5094023;28;21244;-73
2022/05/22 07:08:37;;;;;;;9.50;2.63;;;;;;;-143.84;38.81;44883.41;5091650;28;20436;-73
2022/05/22 07:13:50;;;;;;;9.07;2.40;;;;;;;-143.84;37.71;44883.41;5091292;28;20446;-74
2022/05/22 07:16:19;;;;;;;7.23;2.73;;;;;;;-143.84;37.49;44885.31;5092893;28;20816;-72
2022/05/22 07:18:47;;;;;;;5.00;3.00;;;;;;;-143.84;37.27;44913.88;5092514;28;20937;-72
2022/05/22 07:21:14;;;;;;;12.43;2.83;;;;;;;-143.84;37.56;44900.53;5092186;28;20485;-73
2022/05/22 07:23:41;;;;;;;15.03;2.83;;;;;;;-143.84;38.12;44868.19;5091691;28;20505;-73
2022/05/22 07:26:08;;;;;;;10.77;3.50;;;;;;;-143.84;36.73;44856.75;5091314;28;20440;-73
2022/05/22 07:28:35;;;;;;;5.53;2.23;;;;;;;-143.84;37.43;44894.84;5091286;28;20965;-73
2022/05/22 07:31:04;;;;;;;14.93;3.10;;;;;;;-143.84;37.43;44862.47;5090090;28;20440;-73
2022/05/22 07:33:31;;;;;;;12.13;3.17;;;;;;;-143.84;36.90;44873.88;5088935;28;20460;-73
2022/05/22 07:36:00;;;;;;;16.43;2.70;;;;;;;-143.84;36.25;44820.56;5091002;28;20472;-73
2022/05/22 07:38:28;;;;;;;11.13;2.53;;;;;;;-143.84;35.61;44877.69;5090950;28;20493;-73
2022/05/22 07:40:55;;;;;;;21.67;3.43;;;;;;;-143.84;35.71;44814.88;5089934;28;20454;-73
2022/05/22 07:43:22;;;;;;;14.07;3.50;;;;;;;-143.84;35.79;44858.66;5090625;28;20444;-74
2022/05/22 07:45:49;;;;;;;16.73;2.90;;;;;;;-143.84;36.25;44851.03;5091034;28;20521;-74
2022/05/22 07:48:18;;;;;;;11.37;2.70;;;;;;;-143.84;35.62;44845.31;5091239;28;20447;-74
2022/05/22 07:50:45;;;;;;;17.77;3.80;;;;;;;-143.84;34.99;44879.59;5091270;28;20997;-73
2022/05/22 07:53:12;;;;;;;7.33;2.80;;;;;;;-143.84;35.07;44849.13;5091113;28;20497;-73
2022/05/22 07:55:40;;;;;;;9.33;2.20;;;;;;;-143.84;35.60;44845.31;5090226;28;20451;-73
2022/05/22 07:58:08;;;;;;;6.93;2.43;;;;;;;-143.84;36.36;44847.22;5090908;28;20478;-73
2022/05/22 08:00:35;;;;;;;3.57;2.37;;;;;;;-143.84;34.39;44837.72;5090619;28;20810;-73
2022/05/22 08:03:09;;;;;;;13.47;2.70;;;;;;;-143.84;35.11;44811.06;5090618;28;20432;-73
2022/05/22 08:05:37;;;;;;;14.80;3.37;;;;;;;-143.84;34.55;44858.66;5100698;28;20478;-73
2022/05/22 08:08:05;;;;;;;17.20;2.80;;;;;;;-143.84;35.03;44870.09;5111288;28;20446;-73
2022/05/22 08:10:33;;;;;;;12.80;2.80;;;;;;;-143.84;34.81;44856.75;5109543;28;20451;-72
2022/05/22 08:13:00;;;;;;;8.53;2.60;;;;;;;-143.84;34.42;44851.03;5112234;28;20427;-73
2022/05/22 08:15:30;;;;;;;18.07;3.13;;;;;;;-143.84;35.50;44839.63;5110856;28;20449;-73
2022/05/22 08:17:57;;;;;;;15.80;3.43;;;;;;;-143.84;34.94;44879.59;5110729;28;20479;-72
2022/05/22 08:20:25;;;;;;;27.03;4.47;;;;;;;-143.84;34.79;44854.84;5111230;28;21220;-72
2022/05/22 08:22:56;;;;;;;23.23;3.40;;;;;;;-143.84;34.45;44849.13;5111355;28;20427;-73
2022/05/22 08:25:26;;;;;;;14.20;2.13;;;;;;;-143.84;34.73;44858.66;5111105;28;20450;-72
2022/05/22 08:27:54;;;;;;;10.90;2.37;;;;;;;-143.84;33.74;44856.75;5098467;28;21192;-73
2022/05/22 08:30:23;;;;;;;3.47;2.40;;;;;;;-143.84;35.15;44856.75;5100062;28;20427;-73
2022/05/22 08:32:51;;;;;;;16.40;2.60;;;;;;;-143.84;34.69;44866.28;5098423;28;20469;-73
2022/05/22 08:35:21;;;;;;;8.70;2.10;;;;;;;-143.84;34.11;44894.84;5098427;28;20450;-73
2022/05/22 08:37:48;;;;;;;6.70;2.30;;;;;;;-143.84;35.18;44845.31;5092402;28;20484;-73
2022/05/22 08:40:20;;;;;;;10.03;2.47;;;;;;;-143.84;34.49;44866.28;5094261;28;20452;-73
2022/05/22 08:42:49;;;;;;;10.83;2.43;;;;;;;-143.84;34.86;44883.41;5098163;28;20447;-73
2022/05/22 08:45:19;;;;;;;21.27;3.03;;;;;;;-143.84;35.14;44881.50;5094964;28;20440;-73
2022/05/22 08:47:57;;;;;;;8.80;3.30;;;;;;;-143.84;35.06;44864.38;5093994;28;20533;-73
2022/05/22 08:50:27;;;;;;;14.40;2.50;;;;;;;-143.84;35.02;44858.66;5094585;28;20450;-73
2022/05/22 08:52:58;;;;;;;7.10;2.70;;;;;;;-143.84;34.47;44864.38;5095842;28;20451;-73
2022/05/22 09:01:03;;;;;;;11.07;2.40;;;;;;;-143.84;34.34;44860.56;5094061;28;20435;-73
2022/05/22 09:03:37;;;;;;;18.47;2.13;;;;;;;-143.84;33.34;44900.53;5096657;28;20874;-73
2022/05/22 09:06:07;;;;;;;11.03;2.20;;;;;;;-143.84;33.81;44877.69;5097255;28;20478;-73
2022/05/22 09:08:41;;;;;;;4.63;2.13;;;;;;;-143.84;33.77;44898.66;5097797;28;20500;-73
2022/05/22 09:11:16;;;;;;;9.97;2.23;;;;;;;-143.84;33.92;44910.06;5099953;28;20514;-73
2022/05/22 09:13:50;;;;;;;10.53;1.73;;;;;;;-143.84;33.29;44904.34;5095409;28;20447;-73
2022/05/22 09:16:23;;;;;;;14.87;2.03;;;;;;;-143.84;33.61;44866.28;5094047;28;20511;-73
2022/05/22 09:18:56;;;;;;;5.83;1.43;;;;;;;-143.84;33.97;44898.66;5096299;28;20469;-73
2022/05/22 09:21:32;;;;;;;5.33;1.43;;;;;;;-143.84;33.25;44871.97;5097656;28;20450;-73
2022/05/22 09:24:02;;;;;;;6.97;1.67;;;;;;;-143.84;33.36;44891.03;5096087;28;20450;-73
2022/05/22 09:26:43;;;;;;;9.73;2.10;;;;;;;-143.84;33.21;44911.97;5094296;28;20455;-73
2022/05/22 09:29:46;;;;;;;12.43;1.60;;;;;;;-143.84;34.33;44887.22;5096422;28;20447;-73
2022/05/22 09:32:36;;;;;;;15.63;2.00;;;;;;;-143.84;34.14;44908.16;5095427;28;20507;-73
2022/05/22 09:35:15;;;;;;;8.43;2.33;;;;;;;-143.84;34.12;44900.53;5095305;28;21114;-73
2022/05/22 09:37:51;;;;;;;8.97;2.03;;;;;;;-143.84;33.79;44908.16;5095612;28;20501;-73
2022/05/22 09:40:26;;;;;;;7.40;2.00;;;;;;;-143.84;34.02;44931.00;5090758;28;20438;-73
2022/05/22 09:43:26;;;;;;;8.13;1.67;;;;;;;-143.84;34.63;44915.78;5096067;28;20443;-73
2022/05/22 09:46:04;;;;;;;6.37;2.80;;;;;;;-143.84;35.43;44904.34;5095255;28;21229;-73
2022/05/22 09:48:52;;;;;;;11.40;3.07;;;;;;;-143.84;35.19;44940.53;5095815;28;20451;-73
2022/05/22 09:51:30;;;;;;;10.83;2.00;;;;;;;-143.84;34.64;44919.59;5094971;28;20447;-73
2022/05/22 09:54:11;;;;;;;9.33;2.07;;;;;;;-143.84;36.50;44900.53;5095746;28;20479;-77
2022/05/22 09:56:48;;;;;;;5.93;1.83;;;;;;;-143.84;35.58;44923.41;5099116;28;20435;-76
2022/05/22 09:59:32;;;;;;;10.90;1.70;;;;;;;-143.84;34.91;44913.88;5095976;28;20973;-75
2022/05/22 10:02:05;;;;;;;10.80;2.67;;;;;;;-143.84;34.68;44931.00;5098639;28;20457;-76
2022/05/22 10:04:40;;;;;;;11.30;2.00;;;;;;;-143.84;34.42;44932.91;5094829;28;20439;-77
2022/05/22 10:07:18;;;;;;;7.93;2.40;;;;;;;-143.84;35.44;44906.25;5097004;28;20502;-77
2022/05/22 10:09:54;;;;;;;8.57;2.23;;;;;;;-143.84;35.30;44951.97;5097791;28;20431;-77
2022/05/22 10:12:37;;;;;;;6.97;1.70;;;;;;;-143.84;36.03;44911.97;5101069;28;20463;-77
2022/05/22 10:15:25;;;;;;;7.47;2.53;;;;;;;-143.84;36.56;44902.44;5100941;28;20440;-77
2022/05/22 10:18:13;;;;;;;7.17;3.20;;;;;;;-143.84;36.20;44944.34;5100951;28;20497;-76
2022/05/22 10:20:50;;;;;;;9.43;2.43;;;;;;;-143.84;36.31;44948.16;5098268;28;20933;-76
2022/05/22 10:23:30;;;;;;;8.80;2.60;;;;;;;-143.84;36.62;44929.09;5098301;28;20431;-77
2022/05/22 10:26:08;;;;;;;10.43;1.40;;;;;;;-143.84;35.68;44940.53;5092331;28;20439;-77
2022/05/22 10:28:43;;;;;;;9.10;2.00;;;;;;;-143.84;35.70;44936.72;5098170;28;20442;-77
2022/05/22 10:31:16;;;;;;;5.20;1.43;;;;;;;-143.84;35.48;44953.88;5099625;28;21298;-76
2022/05/22 10:33:55;;;;;;;6.77;1.40;;;;;;;-143.84;35.20;44936.72;5097338;28;20450;-76
2022/05/22 10:36:27;;;;;;;5.43;1.87;;;;;;;-143.84;35.63;44940.53;5101321;28;20439;-76
2022/05/22 10:38:59;;;;;;;14.23;2.03;;;;;;;-143.84;35.72;44921.50;5101669;28;20495;-76
2022/05/22 10:44:18;;;;;;;15.27;2.13;;;;;;;-143.84;36.62;44934.81;5103557;28;20411;-76
2022/05/22 10:46:52;;;;;;;4.33;2.33;;;;;;;-143.84;35.90;44929.09;5097756;28;20443;-76
2022/05/22 10:49:21;;;;;;;7.03;1.97;;;;;;;-143.84;35.86;44940.53;5101664;28;20434;-76
2022/05/22 10:52:00;;;;;;;8.50;2.50;;;;;;;-143.84;35.52;44955.75;5103258;28;20488;-76
2022/05/22 10:54:32;;;;;;;9.10;2.10;;;;;;;-143.84;36.83;44938.63;5101138;28;20454;-76
2022/05/22 10:57:09;;;;;;;11.13;2.07;;;;;;;-143.84;37.09;44953.88;5103828;28;20544;-77
2022/05/22 10:59:37;;;;;;;10.60;2.17;;;;;;;-143.84;36.33;44950.06;5097867;28;20479;-77
2022/05/22 11:02:14;;;;;;;12.67;1.97;;;;;;;-143.84;36.96;44921.50;5101154;28;20450;-77
2022/05/22 11:04:43;;;;;;;9.90;1.87;;;;;;;-143.84;36.58;44932.91;5098944;28;20935;-78
2022/05/22 11:07:11;;;;;;;11.50;2.03;;;;;;;-143.84;36.47;44951.97;5096573;28;20544;-73
2022/05/22 11:09:48;;;;;;;11.23;1.70;;;;;;;-143.84;36.10;44938.63;5096678;28;20455;-72
2022/05/22 11:12:20;;;;;;;4.47;1.70;;;;;;;-143.84;36.54;44950.06;5098225;28;20454;-74
2022/05/22 11:14:47;;;;;;;7.17;1.90;;;;;;;-143.84;36.30;44934.81;5103246;28;20450;-73
2022/05/22 11:17:20;;;;;;;16.03;1.90;;;;;;;-143.84;36.16;44967.19;5096224;28;20466;-74
2022/05/22 11:19:50;;;;;;;6.40;2.07;;;;;;;-143.84;36.10;44946.25;5099626;28;20466;-74
2022/05/22 11:22:31;;;;;;;13.83;1.70;;;;;;;-143.84;35.59;44961.47;5096005;28;20461;-73
2022/05/22 11:25:14;;;;;;;8.93;1.63;;;;;;;-143.84;36.10;44942.44;5102428;28;20969;-77
2022/05/22 11:27:58;;;;;;;4.40;2.40;;;;;;;-143.84;35.69;44961.47;5103784;28;20520;-79
2022/05/22 11:30:37;;;;;;;16.53;2.10;;;;;;;-143.84;35.52;44923.41;5104408;28;20503;-78
2022/05/22 11:33:24;;;;;;;5.57;2.00;;;;;;;-143.84;35.65;44934.81;5102858;28;21742;-78
2022/05/22 11:36:03;;;;;;;2.80;1.50;;;;;;;-143.84;35.00;44953.88;5101993;28;20432;-78
2022/05/22 11:38:44;;;;;;;6.60;1.70;;;;;;;-143.84;35.05;44911.97;5105331;28;20494;-78
2022/05/22 11:41:20;;;;;;;12.73;2.00;;;;;;;-143.84;35.88;44929.09;5103762;28;20451;-78
2022/05/22 11:44:02;;;;;;;12.97;2.43;;;;;;;-143.84;35.52;44913.88;5102837;28;20431;-78
2022/05/22 11:46:41;;;;;;;8.17;1.97;;;;;;;-143.84;35.17;44950.06;5102185;28;20454;-79